1 juli 2022

Tijd Code Weer Temp. Zicht Plafond Wind METAR/SPECI
1:00 p.m.
V
68 °F 15 mi 10.000 ft 020° 020° 12 kt METAR CYEG 011900Z 02012KT 15SM SCT025 BKN100 BKN250 20/14 A3000 RMK CU3AC2CI1 SLP165 DENSITY ALT 3400FT
12:00 p.m.
V
68 °F 15 mi 25.000 ft 360° 360° 14 - 19 kt METAR CYEG 011800Z 36014G19KT 15SM SCT025 SCT090 BKN250 20/14 A2998 RMK CU3AC1CI1 SLP159 DENSITY ALT 3500FT
11:00 a.m.
V
66 °F 15 mi - 310° 310° 10 kt METAR CYEG 011700Z 31010KT 260V320 15SM FEW022 FEW090 FEW250 19/14 A2997 RMK CU1AC1CI1 CU TR ACC ASOCTD DIST NW SLP153 DENSITY ALT 3400FT
10:00 a.m.
V
64 °F 15 mi - Var Var 2 kt METAR CYEG 011600Z VRB02KT 15SM FEW090 FEW250 18/13 A2995 RMK ACC1CI1 ACC TR ACC DIST NW SLP146 DENSITY ALT 3300FT
9:00 a.m.
V
63 °F 15 mi - 250° 250° 5 kt METAR CYEG 011500Z 25005KT 210V290 15SM FEW080 FEW250 17/12 A2996 RMK ACC1CI1 ACC TR CI TR ACC DIST W SLP148 DENSITY ALT 3100FT
8:00 a.m.
V
57 °F 15 mi - 320° 320° 3 kt METAR CYEG 011400Z 32003KT 220V350 15SM FEW080 FEW170 FEW250 14/12 A2997 RMK ACC1AC1CI1 ACC TR AC TR ACC DIST W SLP153 DENSITY ALT 2800FT
7:00 a.m.
V
52 °F 20 mi - Var 000° 0 kt METAR CYEG 011300Z 00000KT 20SM SKC 11/10 A2996 RMK SLP151 DENSITY ALT 2400FT
6:00 a.m.
V
50 °F 20 mi - 180° 180° 3 kt METAR CYEG 011200Z 18003KT 20SM FEW100 FEW240 10/09 A2996 RMK AC1CI1 AC TR SLP153
5:00 a.m.
V
50 °F 20 mi - 190° 190° 4 kt METAR CYEG 011100Z 19004KT 20SM FEW100 FEW240 10/09 A2997 RMK AC1CI2 AC TR SLP157
4:00 a.m.
V
52 °F 20 mi - 180° 180° 8 kt METAR CYEG 011000Z 18008KT 20SM FEW240 11/09 A2998 RMK CI2 SLP157 DENSITY ALT 2400FT
3:00 a.m.
V
50 °F 20 mi - 180° 180° 6 kt METAR CYEG 010900Z 18006KT 20SM SKC 10/09 A2999 RMK SLP163
2:00 a.m.
V
50 °F 20 mi - 180° 180° 5 kt METAR CYEG 010800Z 18005KT 20SM SKC 10/10 A3000 RMK SLP167
1:00 a.m.
V
54 °F 20 mi - 170° 170° 6 kt METAR CYEG 010700Z 17006KT 20SM SKC 12/11 A3001 RMK SLP169 DENSITY ALT 2500FT
12:00 a.m.
V
55 °F 20 mi - 170° 170° 5 kt METAR CYEG 010600Z 17005KT 20SM SKC 13/11 A3002 RMK SLP171 DENSITY ALT 2600FT

30 juni 2022

Tijd Code Weer Temp. Zicht Plafond Wind METAR/SPECI
11:00 p.m.
V
59 °F 20 mi - 160° 160° 7 kt METAR CYEG 010500Z 16007KT 20SM FEW240 15/11 A3003 RMK CI1 SLP173 DENSITY ALT 2800FT
10:00 p.m.
V
61 °F 20 mi - 180° 180° 3 kt METAR CYEG 010400Z 18003KT 20SM SCT240 16/12 A3003 RMK CI3 SLP174 DENSITY ALT 3000FT
9:00 p.m.
V
66 °F 20 mi - 180° 180° 2 kt METAR CYEG 010300Z 18002KT 20SM FEW240 19/14 A3003 RMK CI2 SLP173 DENSITY ALT 3300FT
8:00 p.m.
V
70 °F 20 mi - Var Var 2 kt METAR CYEG 010200Z VRB02KT 20SM FEW052 FEW240 21/13 A3004 RMK CU1CI1 CU TR SLP177 DENSITY ALT 3500FT
7:00 p.m.
V
72 °F 20 mi - 300° 300° 3 kt METAR CYEG 010100Z 30003KT 250V320 20SM FEW052TCU FEW140 SCT240 22/12 A3005 RMK TCU1AC1CI1 SLP182 DENSITY ALT 3600FT
6:00 p.m.
V
72 °F 20 mi - 340° 340° 6 kt METAR CYEG 010000Z 34006KT 20SM FEW052 SCT240 22/11 A3005 RMK CU2CI1 SLP183 DENSITY ALT 3600FT
5:00 p.m.
V
72 °F 20 mi - 340° 340° 9 kt METAR CYEG 302300Z 34009KT 20SM SCT052TCU SCT240 22/10 A3006 RMK TCU3CI1 SLP186 DENSITY ALT 3600FT
4:00 p.m.
V
72 °F 20 mi - 350° 350° 8 kt METAR CYEG 302200Z 35008KT 300V360 20SM SCT041TCU SCT240 22/11 A3006 RMK TCU3CI1 SLP187 DENSITY ALT 3600FT
3:05 p.m.
V
68 °F 20 mi 8.500 ft 350° 350° 4 kt METAR CYEG 302105Z 35004KT 310V020 20SM VCSH SCT041TCU BKN085 20/13 A3007 RMK TCU4ACC1 SLP190 DENSITY ALT 3400FT
2:34 p.m.
V
68 °F 15 mi 4.200 ft 280° 280° 4 kt METAR CYEG 302034Z CCA 28004KT 15SM -SHRA BKN042TCU 20/13 A3007 RMK TCU7 SLP190 DENSITY ALT 3300FT
2:00 p.m.
V
68 °F 20 mi 4.100 ft 320° 320° 8 kt METAR CYEG 302000Z 32008KT 20SM BKN041TCU 20/11 A3007 RMK TCU7 SLP189 DENSITY ALT 3400FT
1:00 p.m.
V
70 °F 20 mi 4.100 ft 300° 300° 11 kt METAR CYEG 301900Z 30011KT 270V350 20SM BKN041TCU BKN230 21/12 A3007 RMK TCU6CI1 CI TR SLP191 DENSITY ALT 3500FT
12:00 p.m.
V
68 °F 20 mi 23.000 ft 300° 300° 5 kt METAR CYEG 301800Z 30005KT 260V330 20SM SCT024TCU BKN230 20/13 A3008 RMK TCU4CI1 SLP194 DENSITY ALT 3400FT
11:00 a.m.
V
66 °F 20 mi 24.000 ft 310° 310° 6 kt METAR CYEG 301700Z 31006KT 250V320 20SM SCT024 SCT073 BKN240 19/13 A3008 RMK CU3AC1CI1 SLP193 DENSITY ALT 3200FT
10:00 a.m.
V
63 °F 20 mi - 300° 300° 7 kt METAR CYEG 301600Z 30007KT 260V330 20SM FEW073 SCT240 17/13 A3007 RMK AC2CI1 SLP191 DENSITY ALT 3100FT
9:00 a.m.
V
59 °F 20 mi - 300° 300° 9 kt METAR CYEG 301500Z 30009KT 20SM FEW120 FEW240 15/12 A3007 RMK AC1CI1 AC TR CI TR SLP190 DENSITY ALT 2800FT
8:00 a.m.
V
55 °F 20 mi - 280° 280° 5 kt METAR CYEG 301400Z 28005KT 250V310 20SM FEW120 FEW240 13/11 A3007 RMK AC1CI1 CI TR SLP189 DENSITY ALT 2600FT
7:00 a.m.
V
52 °F 20 mi - 260° 260° 5 kt METAR CYEG 301300Z 26005KT 20SM FEW120 FEW240 11/10 A3007 RMK AC1CI1 CI TR SLP191
6:00 a.m.
V
50 °F 20 mi - 260° 260° 3 kt METAR CYEG 301200Z 26003KT 20SM FEW095 FEW240 10/09 A3006 RMK AC1CI1 CI TR SLP189
5:00 a.m.
V
50 °F 20 mi - 260° 260° 6 kt METAR CYEG 301100Z 26006KT 20SM SCT095 10/10 A3005 RMK AC4 SLP186
4:00 a.m.
V
50 °F 20 mi - 260° 260° 6 kt METAR CYEG 301000Z 26006KT 20SM FEW100 10/09 A3005 RMK AC1 AC TR SLP184
3:00 a.m.
V
52 °F 20 mi - 260° 260° 6 kt METAR CYEG 300900Z 26006KT 20SM FEW100 11/10 A3004 RMK AC1 AC TR SLP180 DENSITY ALT 2400FT
2:00 a.m.
V
52 °F 20 mi - 250° 250° 6 kt METAR CYEG 300800Z 25006KT 20SM SKC 11/10 A3003 RMK SLP177 DENSITY ALT 2400FT
1:00 a.m.
V
48 °F 20 mi - 220° 220° 5 kt METAR CYEG 300700Z 22005KT 20SM FEW110 09/08 A3003 RMK AC2 SLP178
12:00 a.m.
V
48 °F 20 mi - 220° 220° 3 kt METAR CYEG 300600Z 22003KT 20SM FEW110 09/09 A3001 RMK AC1 SLP173

29 juni 2022

Tijd Code Weer Temp. Zicht Plafond Wind METAR/SPECI
11:00 p.m.
V
54 °F 20 mi - 290° 290° 5 kt METAR CYEG 300500Z 29005KT 20SM FEW110 12/10 A2999 RMK AC1 SLP166 DENSITY ALT 2500FT
10:00 p.m.
V
57 °F 20 mi 11.000 ft 290° 290° 5 kt METAR CYEG 300400Z 29005KT 20SM BKN110 14/12 A2997 RMK AC7 SLP158 DENSITY ALT 2800FT
9:00 p.m.
V
61 °F 20 mi 9.500 ft 060° 060° 9 kt METAR CYEG 300300Z 06009KT 20SM VCSH FEW057CB BKN095 16/11 A2996 RMK CB2AC5 CB E + S QUAD MOV S SLP151 DENSITY ALT 3000FT
8:00 p.m.
V
64 °F 20 mi 24.000 ft 030° 030° 12 kt METAR CYEG 300200Z 03012KT 20SM VCSH SCT057CB BKN240 18/10 A2993 RMK CB3CI2 CB S QUAD MOV S SLP141 DENSITY ALT 3400FT
7:53 p.m.
V
64 °F 20 mi 5.700 ft 030° 030° 10 kt METAR CYEG 300153Z 03010KT 20SM VCSH BKN057CB BKN240 18/11 A2992 RMK CB3CI2 CB S QUAD MOV S SLP139 DENSITY ALT 3400FT
7:00 p.m.
V
64 °F 20 mi 5.700 ft 360° 360° 6 kt METAR CYEG 300100Z 36006KT 20SM TS VCSH BKN057CB BKN240 18/12 A2990 RMK CB6CI1 CB ALQDS MOV S OCNL LTGIC W SLP135 DENSITY ALT 3300FT
6:32 p.m.
V
64 °F 20 mi 5.700 ft 020° 020° 11 kt METAR CYEG 300032Z 02011KT 20SM TS BKN057CB BKN089 18/12 A2989 RMK CB5AC2 CB S-W-N MOV E FRQ LTGIC W SLP132 DENSITY ALT 3300FT
6:00 p.m.
V
64 °F 20 mi 4.100 ft 030° 030° 9 kt METAR CYEG 300000Z 03009KT 20SM BKN041TCU BKN072 18/13 A2988 RMK TCU5AC2 SLP127 DENSITY ALT 3400FT
5:00 p.m.
V
68 °F 20 mi 24.000 ft 360° 360° 8 kt METAR CYEG 292300Z 36008KT 310V020 20SM SCT041TCU BKN240 20/11 A2986 RMK TCU4CI3 SLP121 DENSITY ALT 3600FT
4:00 p.m.
V
66 °F 20 mi 8.700 ft 310° 310° 9 kt METAR CYEG 292200Z 31009KT 20SM SCT052TCU BKN087 BKN240 19/10 A2985 RMK TCU3AC4CI1 CI TR SLP117 DENSITY ALT 3500FT
3:00 p.m.
V
66 °F 20 mi 5.200 ft 310° 310° 8 kt METAR CYEG 292100Z 31008KT 240V330 20SM BKN052TCU BKN240 19/10 A2984 RMK TCU7CI1 CI TR SLP112 DENSITY ALT 3500FT
2:00 p.m.
V
66 °F 20 mi 5.200 ft 270° 270° 5 kt METAR CYEG 292000Z 27005KT 20SM BKN052TCU BKN240 19/11 A2982 RMK TCU7CI1 CI TR SLP106 DENSITY ALT 3500FT
1:00 p.m.
V
66 °F 20 mi 24.000 ft 270° 270° 8 kt METAR CYEG 291900Z 27008KT 250V330 20SM SCT032 BKN240 19/11 A2982 RMK CU4CI3 SLP103 DENSITY ALT 3500FT
12:00 p.m.
V
66 °F 20 mi 24.000 ft 310° 310° 11 kt METAR CYEG 291800Z 31011KT 250V320 20SM SCT032 BKN240 19/11 A2981 RMK CU4CI3 SLP099 DENSITY ALT 3500FT
11:00 a.m.
V
63 °F 20 mi 24.000 ft 260° 260° 6 kt METAR CYEG 291700Z 26006KT 240V310 20SM FEW024 BKN240 17/11 A2980 RMK CU1CI6 SLP094 DENSITY ALT 3400FT
10:00 a.m.
V
61 °F 20 mi 24.000 ft 260° 260° 6 kt METAR CYEG 291600Z 26006KT 20SM FEW024 FEW090 BKN240 16/11 A2979 RMK SC1AC1CI7 SC TR AC TR SLP091 DENSITY ALT 3200FT
9:00 a.m.
V
59 °F 20 mi 24.000 ft 250° 250° 9 kt METAR CYEG 291500Z 25009KT 20SM FEW024 FEW090 BKN240 15/11 A2978 RMK SC1AC1CI5 SC TR SLP089 DENSITY ALT 3100FT
Oudere gegevens

Installeer onze app

Gemakkelijke toegang tot al het luchtvaartweer op je mobiele telefoon en tablet.
Met veel functies die niet op de website beschikbaar zijn, zoals offline ondersteuning en een persoonlijke lijst van vliegvelden.

Met cookies volgen wij en derde partijen jouw internetgedrag binnen onze site. Als je verdergaat gaan we ervan uit dat je dit goedvindt. Meer info